sensor_id;sensor_type;location;lat;lon;timestamp;pressure;altitude;pressure_sealevel;temperature;humidity
77583;BME280;66726;52.388;9.986;2023-01-15T00:02:06;98942.56;;;9.01;89.72
77583;BME280;66726;52.388;9.986;2023-01-15T00:04:36;98980.59;;;9.03;89.34
77583;BME280;66726;52.388;9.986;2023-01-15T00:07:04;98967.97;;;8.69;87.66
77583;BME280;66726;52.388;9.986;2023-01-15T00:09:32;98976.88;;;8.55;88.18
77583;BME280;66726;52.388;9.986;2023-01-15T00:12:00;98997.47;;;8.46;88.36
77583;BME280;66726;52.388;9.986;2023-01-15T00:14:28;99004.69;;;8.46;87.74
77583;BME280;66726;52.388;9.986;2023-01-15T00:16:56;99010.13;;;8.23;87.71
77583;BME280;66726;52.388;9.986;2023-01-15T00:19:24;99009.88;;;8.18;87.76
77583;BME280;66726;52.388;9.986;2023-01-15T00:21:54;98999.06;;;8.26;87.41
77583;BME280;66726;52.388;9.986;2023-01-15T00:24:22;99005.53;;;8.17;88.11
77583;BME280;66726;52.388;9.986;2023-01-15T00:27:09;99012.25;;;8.13;88.31
77583;BME280;66726;52.388;9.986;2023-01-15T00:29:55;99008.16;;;7.96;85.61
77583;BME280;66726;52.388;9.986;2023-01-15T00:32:23;99008.69;;;7.91;87.01
77583;BME280;66726;52.388;9.986;2023-01-15T00:34:53;98998.16;;;7.83;85.71
77583;BME280;66726;52.388;9.986;2023-01-15T00:37:22;99002.03;;;7.81;86.18
77583;BME280;66726;52.388;9.986;2023-01-15T00:39:51;99037.38;;;7.75;85.37
77583;BME280;66726;52.388;9.986;2023-01-15T00:42:19;99035.81;;;7.65;85.59
77583;BME280;66726;52.388;9.986;2023-01-15T00:44:47;99035.19;;;7.63;86.06
77583;BME280;66726;52.388;9.986;2023-01-15T00:47:15;99037.91;;;7.55;84.20
77583;BME280;66726;52.388;9.986;2023-01-15T00:49:43;99053.03;;;7.40;83.85
77583;BME280;66726;52.388;9.986;2023-01-15T00:52:12;99047.06;;;7.38;83.10
77583;BME280;66726;52.388;9.986;2023-01-15T00:54:41;99059.50;;;7.23;83.55
77583;BME280;66726;52.388;9.986;2023-01-15T00:57:10;99059.66;;;7.07;83.30
77583;BME280;66726;52.388;9.986;2023-01-15T00:59:38;99065.91;;;7.14;81.97
77583;BME280;66726;52.388;9.986;2023-01-15T01:02:06;99073.13;;;7.05;82.84
77583;BME280;66726;52.388;9.986;2023-01-15T01:04:34;99077.09;;;6.87;83.33
77583;BME280;66726;52.388;9.986;2023-01-15T01:07:03;99080.72;;;6.94;83.24
77583;BME280;66726;52.388;9.986;2023-01-15T01:09:31;99097.19;;;6.89;83.37
77583;BME280;66726;52.388;9.986;2023-01-15T01:12:01;99101.41;;;6.84;82.67
77583;BME280;66726;52.388;9.986;2023-01-15T01:14:29;99100.00;;;6.65;82.01
77583;BME280;66726;52.388;9.986;2023-01-15T01:16:57;99107.38;;;6.55;82.30
77583;BME280;66726;52.388;9.986;2023-01-15T01:19:26;99115.91;;;6.50;83.21
77583;BME280;66726;52.388;9.986;2023-01-15T01:21:54;99116.56;;;6.44;82.13
77583;BME280;66726;52.388;9.986;2023-01-15T01:24:23;99110.91;;;6.47;82.86
77583;BME280;66726;52.388;9.986;2023-01-15T01:26:51;99123.75;;;6.36;81.25
77583;BME280;66726;52.388;9.986;2023-01-15T01:29:22;99129.78;;;6.30;82.06
77583;BME280;66726;52.388;9.986;2023-01-15T01:31:51;99116.00;;;6.26;81.90
77583;BME280;66726;52.388;9.986;2023-01-15T01:34:19;99117.69;;;6.19;80.97
77583;BME280;66726;52.388;9.986;2023-01-15T01:36:47;99128.13;;;6.29;80.81
77583;BME280;66726;52.388;9.986;2023-01-15T01:39:17;99132.28;;;6.23;80.85
77583;BME280;66726;52.388;9.986;2023-01-15T01:41:47;99142.25;;;6.21;81.13
77583;BME280;66726;52.388;9.986;2023-01-15T01:45:09;99152.09;;;6.13;80.75
77583;BME280;66726;52.388;9.986;2023-01-15T01:47:44;99152.25;;;6.03;80.78
77583;BME280;66726;52.388;9.986;2023-01-15T01:50:13;99146.63;;;5.98;81.83
77583;BME280;66726;52.388;9.986;2023-01-15T01:52:49;99145.97;;;6.04;81.10
77583;BME280;66726;52.388;9.986;2023-01-15T01:55:22;99157.59;;;5.95;81.69
77583;BME280;66726;52.388;9.986;2023-01-15T01:57:55;99145.31;;;5.94;81.15
77583;BME280;66726;52.388;9.986;2023-01-15T02:00:28;99144.63;;;5.84;80.84
77583;BME280;66726;52.388;9.986;2023-01-15T02:03:00;99142.66;;;5.78;81.22
77583;BME280;66726;52.388;9.986;2023-01-15T02:05:32;99155.59;;;5.73;81.60
77583;BME280;66726;52.388;9.986;2023-01-15T02:08:01;99147.97;;;5.70;81.89
77583;BME280;66726;52.388;9.986;2023-01-15T02:10:29;99151.31;;;5.63;80.57
77583;BME280;66726;52.388;9.986;2023-01-15T02:13:03;99146.84;;;5.56;80.77
77583;BME280;66726;52.388;9.986;2023-01-15T02:15:38;99158.94;;;5.58;80.96
77583;BME280;66726;52.388;9.986;2023-01-15T02:18:17;99159.28;;;5.47;80.92
77583;BME280;66726;52.388;9.986;2023-01-15T02:20:54;99159.13;;;5.41;80.26
77583;BME280;66726;52.388;9.986;2023-01-15T02:24:04;99154.97;;;5.46;81.01
77583;BME280;66726;52.388;9.986;2023-01-15T02:27:08;99163.09;;;5.37;80.71
77583;BME280;66726;52.388;9.986;2023-01-15T02:29:48;99157.78;;;5.37;80.44
77583;BME280;66726;52.388;9.986;2023-01-15T02:32:28;99167.06;;;5.33;80.91
77583;BME280;66726;52.388;9.986;2023-01-15T02:35:04;99163.94;;;5.37;81.46
77583;BME280;66726;52.388;9.986;2023-01-15T02:37:39;99158.94;;;5.34;81.13
77583;BME280;66726;52.388;9.986;2023-01-15T02:40:10;99162.28;;;5.36;81.13
77583;BME280;66726;52.388;9.986;2023-01-15T02:42:44;99147.84;;;5.31;80.98
77583;BME280;66726;52.388;9.986;2023-01-15T02:45:16;99142.03;;;5.35;81.28
77583;BME280;66726;52.388;9.986;2023-01-15T02:47:53;99149.00;;;5.36;80.67
77583;BME280;66726;52.388;9.986;2023-01-15T02:50:29;99161.28;;;5.29;80.09
77583;BME280;66726;52.388;9.986;2023-01-15T02:53:02;99165.25;;;5.25;79.80
77583;BME280;66726;52.388;9.986;2023-01-15T02:55:42;99152.66;;;5.27;79.43
77583;BME280;66726;52.388;9.986;2023-01-15T02:58:17;99135.06;;;5.26;79.25
77583;BME280;66726;52.388;9.986;2023-01-15T03:00:50;99126.63;;;5.23;79.84
77583;BME280;66726;52.388;9.986;2023-01-15T03:03:30;99120.47;;;5.22;79.98
77583;BME280;66726;52.388;9.986;2023-01-15T03:06:08;99108.19;;;5.21;80.21
77583;BME280;66726;52.388;9.986;2023-01-15T03:08:39;99103.22;;;5.26;79.78
77583;BME280;66726;52.388;9.986;2023-01-15T03:11:10;99118.47;;;5.32;78.91
77583;BME280;66726;52.388;9.986;2023-01-15T03:13:47;99113.50;;;5.29;78.60
77583;BME280;66726;52.388;9.986;2023-01-15T03:16:26;99111.19;;;5.26;77.44
77583;BME280;66726;52.388;9.986;2023-01-15T03:19:21;99118.16;;;5.19;78.94
77583;BME280;66726;52.388;9.986;2023-01-15T03:21:57;99114.19;;;5.23;78.75
77583;BME280;66726;52.388;9.986;2023-01-15T03:24:31;99115.66;;;5.18;78.25
77583;BME280;66726;52.388;9.986;2023-01-15T03:27:03;99113.84;;;5.18;78.84
77583;BME280;66726;52.388;9.986;2023-01-15T03:29:37;99115.50;;;5.19;78.07
77583;BME280;66726;52.388;9.986;2023-01-15T03:32:07;99105.53;;;5.21;78.32
77583;BME280;66726;52.388;9.986;2023-01-15T03:34:42;99106.88;;;5.25;79.78
77583;BME280;66726;52.388;9.986;2023-01-15T03:37:11;99094.75;;;5.15;78.31
77583;BME280;66726;52.388;9.986;2023-01-15T03:39:41;99097.75;;;5.11;79.95
77583;BME280;66726;52.388;9.986;2023-01-15T03:42:21;99098.59;;;5.12;79.61
77583;BME280;66726;52.388;9.986;2023-01-15T03:45:01;99094.59;;;5.08;80.12
77583;BME280;66726;52.388;9.986;2023-01-15T03:47:42;99103.25;;;5.10;79.98
77583;BME280;66726;52.388;9.986;2023-01-15T03:50:21;99105.22;;;5.08;80.32
77583;BME280;66726;52.388;9.986;2023-01-15T03:53:03;99106.69;;;5.10;80.35
77583;BME280;66726;52.388;9.986;2023-01-15T03:55:43;99094.59;;;5.08;80.86
77583;BME280;66726;52.388;9.986;2023-01-15T03:58:18;99086.66;;;5.08;80.25
77583;BME280;66726;52.388;9.986;2023-01-15T04:00:51;99099.06;;;5.07;80.84
77583;BME280;66726;52.388;9.986;2023-01-15T04:03:22;99096.59;;;5.06;80.68
77583;BME280;66726;52.388;9.986;2023-01-15T04:05:54;99074.22;;;5.08;80.86
77583;BME280;66726;52.388;9.986;2023-01-15T04:08:25;99076.03;;;5.08;80.96
77583;BME280;66726;52.388;9.986;2023-01-15T04:10:58;99071.72;;;5.07;80.57
77583;BME280;66726;52.388;9.986;2023-01-15T04:13:28;99070.56;;;5.09;81.02
77583;BME280;66726;52.388;9.986;2023-01-15T04:15:59;99078.69;;;5.08;80.69
77583;BME280;66726;52.388;9.986;2023-01-15T04:18:28;99075.06;;;5.09;81.01
77583;BME280;66726;52.388;9.986;2023-01-15T04:20:56;99064.44;;;5.09;80.81
77583;BME280;66726;52.388;9.986;2023-01-15T04:23:27;99059.97;;;5.09;80.58
77583;BME280;66726;52.388;9.986;2023-01-15T04:25:56;99056.16;;;5.12;79.90
77583;BME280;66726;52.388;9.986;2023-01-15T04:28:24;99065.09;;;5.11;80.29
77583;BME280;66726;52.388;9.986;2023-01-15T04:30:55;99043.88;;;5.11;80.39
77583;BME280;66726;52.388;9.986;2023-01-15T04:33:26;99062.63;;;5.09;80.42
77583;BME280;66726;52.388;9.986;2023-01-15T04:35:58;99055.50;;;5.10;79.54
77583;BME280;66726;52.388;9.986;2023-01-15T04:38:26;99068.56;;;5.11;79.37
77583;BME280;66726;52.388;9.986;2023-01-15T04:40:55;99074.72;;;5.12;80.00
77583;BME280;66726;52.388;9.986;2023-01-15T04:43:44;99056.28;;;5.10;80.01
77583;BME280;66726;52.388;9.986;2023-01-15T04:46:29;99067.94;;;5.09;79.90
77583;BME280;66726;52.388;9.986;2023-01-15T04:48:59;99051.81;;;5.11;81.08
77583;BME280;66726;52.388;9.986;2023-01-15T04:51:27;99052.31;;;5.15;79.77
77583;BME280;66726;52.388;9.986;2023-01-15T04:53:55;99053.50;;;5.12;79.81
77583;BME280;66726;52.388;9.986;2023-01-15T04:56:24;99054.47;;;5.11;79.83
77583;BME280;66726;52.388;9.986;2023-01-15T04:58:52;99069.41;;;5.12;80.81
77583;BME280;66726;52.388;9.986;2023-01-15T05:01:20;99050.84;;;5.12;79.92
77583;BME280;66726;52.388;9.986;2023-01-15T05:03:48;99069.56;;;5.19;80.05
77583;BME280;66726;52.388;9.986;2023-01-15T05:06:17;99069.06;;;5.15;79.80
77583;BME280;66726;52.388;9.986;2023-01-15T05:08:45;99080.00;;;5.12;80.10
77583;BME280;66726;52.388;9.986;2023-01-15T05:11:14;99074.72;;;5.12;80.09
77583;BME280;66726;52.388;9.986;2023-01-15T05:13:42;99067.25;;;5.16;79.91
77583;BME280;66726;52.388;9.986;2023-01-15T05:16:13;99069.41;;;5.12;80.05
77583;BME280;66726;52.388;9.986;2023-01-15T05:18:43;99081.34;;;5.16;79.82
77583;BME280;66726;52.388;9.986;2023-01-15T05:21:19;99079.69;;;5.15;79.55
77583;BME280;66726;52.388;9.986;2023-01-15T05:23:50;99069.06;;;5.15;79.95
77583;BME280;66726;52.388;9.986;2023-01-15T05:26:19;99061.78;;;5.17;79.27
77583;BME280;66726;52.388;9.986;2023-01-15T05:28:49;99056.78;;;5.14;79.49
77583;BME280;66726;52.388;9.986;2023-01-15T05:31:19;99048.19;;;5.12;80.09
77583;BME280;66726;52.388;9.986;2023-01-15T05:33:49;99055.31;;;5.11;79.89
77583;BME280;66726;52.388;9.986;2023-01-15T05:36:21;99056.97;;;5.13;80.22
77583;BME280;66726;52.388;9.986;2023-01-15T05:38:50;99056.28;;;5.10;79.88
77583;BME280;66726;52.388;9.986;2023-01-15T05:41:21;99053.81;;;5.09;79.87
77583;BME280;66726;52.388;9.986;2023-01-15T05:44:10;99053.63;;;5.10;79.32
77583;BME280;66726;52.388;9.986;2023-01-15T05:46:40;99060.47;;;5.13;79.38
77583;BME280;66726;52.388;9.986;2023-01-15T05:49:11;99061.13;;;5.15;79.44
77583;BME280;66726;52.388;9.986;2023-01-15T05:51:41;99062.94;;;5.15;79.06
77583;BME280;66726;52.388;9.986;2023-01-15T05:54:13;99057.81;;;5.13;79.45
77583;BME280;66726;52.388;9.986;2023-01-15T05:56:43;99057.97;;;5.11;79.26
77583;BME280;66726;52.388;9.986;2023-01-15T05:59:12;99064.09;;;5.12;79.34
77583;BME280;66726;52.388;9.986;2023-01-15T06:01:41;99065.28;;;5.09;79.49
77583;BME280;66726;52.388;9.986;2023-01-15T06:04:11;99070.56;;;5.09;79.21
77583;BME280;66726;52.388;9.986;2023-01-15T06:06:42;99077.69;;;5.09;79.68
77583;BME280;66726;52.388;9.986;2023-01-15T06:09:11;99070.56;;;5.09;79.52
77583;BME280;66726;52.388;9.986;2023-01-15T06:11:40;99080.34;;;5.09;79.24
77583;BME280;66726;52.388;9.986;2023-01-15T06:14:09;99077.84;;;5.07;79.41
77583;BME280;66726;52.388;9.986;2023-01-15T06:16:38;99077.69;;;5.09;79.97
77583;BME280;66726;52.388;9.986;2023-01-15T06:19:08;99097.94;;;5.10;79.24
77583;BME280;66726;52.388;9.986;2023-01-15T06:21:37;99099.41;;;5.13;79.46
77583;BME280;66726;52.388;9.986;2023-01-15T06:24:07;99092.28;;;5.13;79.16
77583;BME280;66726;52.388;9.986;2023-01-15T06:26:37;99106.22;;;5.15;79.51
77583;BME280;66726;52.388;9.986;2023-01-15T06:29:06;99096.59;;;5.14;79.53
77583;BME280;66726;52.388;9.986;2023-01-15T06:31:34;99111.19;;;5.18;79.20
77583;BME280;66726;52.388;9.986;2023-01-15T06:34:02;99106.88;;;5.17;79.87
77583;BME280;66726;52.388;9.986;2023-01-15T06:36:30;99099.22;;;5.14;79.42
77583;BME280;66726;52.388;9.986;2023-01-15T06:38:58;99102.56;;;5.16;78.79
77583;BME280;66726;52.388;9.986;2023-01-15T06:41:28;99095.59;;;5.15;78.95
77583;BME280;66726;52.388;9.986;2023-01-15T06:44:16;99099.09;;;5.16;79.12
77583;BME280;66726;52.388;9.986;2023-01-15T06:47:11;99095.59;;;5.15;78.44
77583;BME280;66726;52.388;9.986;2023-01-15T06:49:53;99111.88;;;5.20;78.50
77583;BME280;66726;52.388;9.986;2023-01-15T06:52:22;99111.69;;;5.22;77.69
77583;BME280;66726;52.388;9.986;2023-01-15T06:54:50;99094.59;;;5.24;77.78
77583;BME280;66726;52.388;9.986;2023-01-15T06:57:20;99086.63;;;5.24;77.52
77583;BME280;66726;52.388;9.986;2023-01-15T06:59:49;99097.94;;;5.26;77.68
77583;BME280;66726;52.388;9.986;2023-01-15T07:02:18;99094.94;;;5.29;76.54
77583;BME280;66726;52.388;9.986;2023-01-15T07:04:47;99102.91;;;5.29;76.58
77583;BME280;66726;52.388;9.986;2023-01-15T07:07:17;99102.06;;;5.29;77.22
77583;BME280;66726;52.388;9.986;2023-01-15T07:09:45;99099.75;;;5.26;77.35
77583;BME280;66726;52.388;9.986;2023-01-15T07:12:14;99094.59;;;5.24;77.26
77583;BME280;66726;52.388;9.986;2023-01-15T07:14:44;99106.72;;;5.27;77.47
77583;BME280;66726;52.388;9.986;2023-01-15T07:17:13;99098.56;;;5.28;77.12
77583;BME280;66726;52.388;9.986;2023-01-15T07:19:41;99097.94;;;5.26;77.04
77583;BME280;66726;52.388;9.986;2023-01-15T07:22:09;99099.91;;;5.24;77.06
77583;BME280;66726;52.388;9.986;2023-01-15T07:24:37;99107.84;;;5.24;77.90
77583;BME280;66726;52.388;9.986;2023-01-15T07:27:06;99106.03;;;5.25;77.71
77583;BME280;66726;52.388;9.986;2023-01-15T07:29:34;99108.53;;;5.26;77.31
77583;BME280;66726;52.388;9.986;2023-01-15T07:32:04;99100.41;;;5.28;77.04
77583;BME280;66726;52.388;9.986;2023-01-15T07:34:32;99107.56;;;5.27;77.31
77583;BME280;66726;52.388;9.986;2023-01-15T07:37:00;99113.84;;;5.26;77.26
77583;BME280;66726;52.388;9.986;2023-01-15T07:39:28;99105.22;;;5.24;76.99
77583;BME280;66726;52.388;9.986;2023-01-15T07:41:57;99110.22;;;5.27;76.48
77583;BME280;66726;52.388;9.986;2023-01-15T07:44:43;99106.53;;;5.28;76.73
77583;BME280;66726;52.388;9.986;2023-01-15T07:47:30;99103.22;;;5.26;76.32
77583;BME280;66726;52.388;9.986;2023-01-15T07:50:19;99111.84;;;5.28;76.21
77583;BME280;66726;52.388;9.986;2023-01-15T07:52:47;99100.72;;;5.25;76.64
77583;BME280;66726;52.388;9.986;2023-01-15T07:55:19;99102.56;;;5.24;76.87
77583;BME280;66726;52.388;9.986;2023-01-15T07:57:47;99119.50;;;5.23;76.20
77583;BME280;66726;52.388;9.986;2023-01-15T08:00:21;99111.84;;;5.28;76.08
77583;BME280;66726;52.388;9.986;2023-01-15T08:02:51;99106.88;;;5.25;76.46
77583;BME280;66726;52.388;9.986;2023-01-15T08:05:19;99119.16;;;5.26;76.52
77583;BME280;66726;52.388;9.986;2023-01-15T08:07:47;99116.81;;;5.31;75.88
77583;BME280;66726;52.388;9.986;2023-01-15T08:10:16;99118.81;;;5.29;75.67
77583;BME280;66726;52.388;9.986;2023-01-15T08:12:48;99109.03;;;5.30;76.06
77583;BME280;66726;52.388;9.986;2023-01-15T08:15:39;99114.16;;;5.31;75.91
77583;BME280;66726;52.388;9.986;2023-01-15T08:18:10;99116.81;;;5.31;76.14
77583;BME280;66726;52.388;9.986;2023-01-15T08:20:39;99107.88;;;5.32;75.87
77583;BME280;66726;52.388;9.986;2023-01-15T08:23:07;99111.84;;;5.36;75.71
77583;BME280;66726;52.388;9.986;2023-01-15T08:25:36;99112.50;;;5.38;75.34
77583;BME280;66726;52.388;9.986;2023-01-15T08:28:04;99105.72;;;5.36;75.29
77583;BME280;66726;52.388;9.986;2023-01-15T08:30:32;99100.06;;;5.39;75.25
77583;BME280;66726;52.388;9.986;2023-01-15T08:33:01;99100.06;;;5.39;75.25
77583;BME280;66726;52.388;9.986;2023-01-15T08:35:30;99110.88;;;5.37;75.62
77583;BME280;66726;52.388;9.986;2023-01-15T08:38:04;99105.88;;;5.34;76.03
77583;BME280;66726;52.388;9.986;2023-01-15T08:40:33;99107.19;;;5.38;75.41
77583;BME280;66726;52.388;9.986;2023-01-15T08:43:02;99119.81;;;5.44;74.70
77583;BME280;66726;52.388;9.986;2023-01-15T08:45:30;99122.78;;;5.41;74.78
77583;BME280;66726;52.388;9.986;2023-01-15T08:47:58;99113.81;;;5.42;74.63
77583;BME280;66726;52.388;9.986;2023-01-15T08:50:26;99123.47;;;5.43;75.34
77583;BME280;66726;52.388;9.986;2023-01-15T08:52:56;99126.28;;;5.50;74.53
77583;BME280;66726;52.388;9.986;2023-01-15T08:55:24;99126.59;;;5.47;74.58
77583;BME280;66726;52.388;9.986;2023-01-15T08:57:52;99126.59;;;5.47;74.94
77583;BME280;66726;52.388;9.986;2023-01-15T09:00:20;99122.13;;;5.47;74.96
77583;BME280;66726;52.388;9.986;2023-01-15T09:02:51;99122.78;;;5.49;74.83
77583;BME280;66726;52.388;9.986;2023-01-15T09:05:19;99121.47;;;5.53;73.75
77583;BME280;66726;52.388;9.986;2023-01-15T09:07:47;99121.13;;;5.48;73.37
77583;BME280;66726;52.388;9.986;2023-01-15T09:10:17;99106.03;;;5.49;73.68
77583;BME280;66726;52.388;9.986;2023-01-15T09:12:45;99126.44;;;5.48;74.45
77583;BME280;66726;52.388;9.986;2023-01-15T09:15:13;99126.75;;;5.45;73.66
77583;BME280;66726;52.388;9.986;2023-01-15T09:17:41;99121.63;;;5.44;74.01
77583;BME280;66726;52.388;9.986;2023-01-15T09:20:14;99122.13;;;5.47;72.84
77583;BME280;66726;52.388;9.986;2023-01-15T09:22:42;99136.41;;;5.46;73.86
77583;BME280;66726;52.388;9.986;2023-01-15T09:25:10;99145.00;;;5.48;73.30
77583;BME280;66726;52.388;9.986;2023-01-15T09:27:39;99150.50;;;5.47;73.68
77583;BME280;66726;52.388;9.986;2023-01-15T09:30:15;99141.03;;;5.52;73.13
77583;BME280;66726;52.388;9.986;2023-01-15T09:32:43;99144.66;;;5.51;73.41
77583;BME280;66726;52.388;9.986;2023-01-15T09:35:12;99154.97;;;5.54;72.84
77583;BME280;66726;52.388;9.986;2023-01-15T09:37:40;99143.69;;;5.52;74.06
77583;BME280;66726;52.388;9.986;2023-01-15T09:40:39;99151.00;;;5.50;73.09
77583;BME280;66726;52.388;9.986;2023-01-15T09:43:26;99143.69;;;5.52;73.00
77583;BME280;66726;52.388;9.986;2023-01-15T09:46:02;99143.53;;;5.54;72.55
77583;BME280;66726;52.388;9.986;2023-01-15T09:48:50;99144.38;;;5.54;73.73
77583;BME280;66726;52.388;9.986;2023-01-15T09:51:31;99144.38;;;5.54;73.00
77583;BME280;66726;52.388;9.986;2023-01-15T09:54:19;99151.81;;;5.59;72.32
77583;BME280;66726;52.388;9.986;2023-01-15T09:56:50;99146.69;;;5.57;72.43
77583;BME280;66726;52.388;9.986;2023-01-15T09:59:30;99142.03;;;5.59;71.99
77583;BME280;66726;52.388;9.986;2023-01-15T10:02:12;99137.19;;;5.63;72.07
77583;BME280;66726;52.388;9.986;2023-01-15T10:04:50;99128.59;;;5.61;72.23
77583;BME280;66726;52.388;9.986;2023-01-15T10:07:29;99132.38;;;5.58;72.09
77583;BME280;66726;52.388;9.986;2023-01-15T10:10:05;99119.78;;;5.60;71.07
77583;BME280;66726;52.388;9.986;2023-01-15T10:12:38;99111.81;;;5.60;71.84
77583;BME280;66726;52.388;9.986;2023-01-15T10:15:21;99134.88;;;5.60;71.61
77583;BME280;66726;52.388;9.986;2023-01-15T10:17:52;99129.41;;;5.70;70.30
77583;BME280;66726;52.388;9.986;2023-01-15T10:20:49;99135.69;;;5.69;69.51
77583;BME280;66726;52.388;9.986;2023-01-15T10:23:33;99129.41;;;5.70;69.30
77583;BME280;66726;52.388;9.986;2023-01-15T10:26:13;99128.06;;;5.74;69.00
77583;BME280;66726;52.388;9.986;2023-01-15T10:29:00;99142.31;;;5.81;68.65
77583;BME280;66726;52.388;9.986;2023-01-15T10:31:49;99158.59;;;5.86;68.17
77583;BME280;66726;52.388;9.986;2023-01-15T10:37:40;99168.25;;;5.87;68.65
77583;BME280;66726;52.388;9.986;2023-01-15T10:40:33;99168.53;;;5.84;69.40
77583;BME280;66726;52.388;9.986;2023-01-15T10:43:15;99159.59;;;5.77;70.15
77583;BME280;66726;52.388;9.986;2023-01-15T10:45:50;99158.09;;;5.74;70.47
77583;BME280;66726;52.388;9.986;2023-01-15T10:48:29;99162.25;;;5.69;71.26
77583;BME280;66726;52.388;9.986;2023-01-15T10:51:06;99161.94;;;5.63;71.29
77583;BME280;66726;52.388;9.986;2023-01-15T10:53:48;99164.44;;;5.57;71.51
77583;BME280;66726;52.388;9.986;2023-01-15T10:56:30;99157.44;;;5.56;71.85
77583;BME280;66726;52.388;9.986;2023-01-15T10:59:11;99156.63;;;5.55;71.98
77583;BME280;66726;52.388;9.986;2023-01-15T11:01:42;99153.31;;;5.53;71.24
77583;BME280;66726;52.388;9.986;2023-01-15T11:04:12;99139.06;;;5.54;71.24
77583;BME280;66726;52.388;9.986;2023-01-15T11:06:40;99124.75;;;5.55;71.27
77583;BME280;66726;52.388;9.986;2023-01-15T11:09:19;99149.97;;;5.59;71.32
77583;BME280;66726;52.388;9.986;2023-01-15T11:11:51;99144.19;;;5.64;71.87
77583;BME280;66726;52.388;9.986;2023-01-15T11:14:40;99139.84;;;5.71;70.82
77583;BME280;66726;52.388;9.986;2023-01-15T11:17:30;99142.00;;;5.76;71.90
77583;BME280;66726;52.388;9.986;2023-01-15T11:20:31;99142.31;;;5.81;71.28
77583;BME280;66726;52.388;9.986;2023-01-15T11:23:07;99134.38;;;5.81;71.38
77583;BME280;66726;52.388;9.986;2023-01-15T11:25:39;99126.06;;;5.84;71.29
77583;BME280;66726;52.388;9.986;2023-01-15T11:28:15;99122.41;;;5.85;70.36
77583;BME280;66726;52.388;9.986;2023-01-15T11:30:53;99124.06;;;5.86;70.60
77583;BME280;66726;52.388;9.986;2023-01-15T11:33:24;99114.13;;;5.88;70.43
77583;BME280;66726;52.388;9.986;2023-01-15T11:35:57;99112.94;;;5.90;69.74
77583;BME280;66726;52.388;9.986;2023-01-15T11:38:28;99135.66;;;6.01;69.38
77583;BME280;66726;52.388;9.986;2023-01-15T11:41:00;99130.34;;;6.01;68.55
77583;BME280;66726;52.388;9.986;2023-01-15T11:43:30;99145.97;;;6.04;69.05
77583;BME280;66726;52.388;9.986;2023-01-15T11:46:31;99141.63;;;6.11;67.61
77583;BME280;66726;52.388;9.986;2023-01-15T11:49:19;99136.63;;;6.16;67.21
77583;BME280;66726;52.388;9.986;2023-01-15T11:52:09;99114.50;;;6.24;67.31
77583;BME280;66726;52.388;9.986;2023-01-15T11:54:42;99139.72;;;6.36;65.67
77583;BME280;66726;52.388;9.986;2023-01-15T11:57:22;99109.13;;;6.40;64.46
77583;BME280;66726;52.388;9.986;2023-01-15T11:59:52;99113.75;;;6.46;65.04
77583;BME280;66726;52.388;9.986;2023-01-15T12:02:31;99115.91;;;6.50;64.89
77583;BME280;66726;52.388;9.986;2023-01-15T12:05:04;99105.88;;;6.60;64.41
77583;BME280;66726;52.388;9.986;2023-01-15T12:07:38;99111.13;;;6.69;63.87
77583;BME280;66726;52.388;9.986;2023-01-15T12:10:19;99114.47;;;6.71;63.30
77583;BME280;66726;52.388;9.986;2023-01-15T12:13:22;99113.72;;;6.85;62.78
77583;BME280;66726;52.388;9.986;2023-01-15T12:16:03;99117.59;;;6.97;63.00
77583;BME280;66726;52.388;9.986;2023-01-15T12:18:50;99107.28;;;7.02;62.43
77583;BME280;66726;52.388;9.986;2023-01-15T12:21:46;99108.66;;;7.12;61.35
77583;BME280;66726;52.388;9.986;2023-01-15T12:24:42;99110.09;;;7.00;60.88
77583;BME280;66726;52.388;9.986;2023-01-15T12:27:32;99098.97;;;6.97;60.87
77583;BME280;66726;52.388;9.986;2023-01-15T12:30:15;99104.13;;;6.98;61.44
77583;BME280;66726;52.388;9.986;2023-01-15T12:32:55;99105.97;;;6.98;60.52
77583;BME280;66726;52.388;9.986;2023-01-15T12:35:29;99097.91;;;7.06;59.01
77583;BME280;66726;52.388;9.986;2023-01-15T12:38:07;99090.22;;;7.11;59.30
77583;BME280;66726;52.388;9.986;2023-01-15T12:40:46;99110.31;;;7.13;59.34
77583;BME280;66726;52.388;9.986;2023-01-15T12:43:23;99096.19;;;7.13;58.37
77583;BME280;66726;52.388;9.986;2023-01-15T12:46:14;99094.72;;;7.10;59.19
77583;BME280;66726;52.388;9.986;2023-01-15T12:48:49;99090.22;;;7.11;57.84
77583;BME280;66726;52.388;9.986;2023-01-15T12:51:27;99093.66;;;6.97;59.34
77583;BME280;66726;52.388;9.986;2023-01-15T12:54:00;99099.75;;;6.83;60.19
77583;BME280;66726;52.388;9.986;2023-01-15T12:56:46;99101.44;;;6.76;61.09
77583;BME280;66726;52.388;9.986;2023-01-15T12:59:25;99092.50;;;6.69;63.22
77583;BME280;66726;52.388;9.986;2023-01-15T13:02:12;99085.41;;;6.61;60.52
77583;BME280;66726;52.388;9.986;2023-01-15T13:04:48;99090.72;;;6.61;61.43
77583;BME280;66726;52.388;9.986;2023-01-15T13:07:26;99087.06;;;6.62;61.99
77583;BME280;66726;52.388;9.986;2023-01-15T13:10:05;99073.25;;;6.67;62.17
77583;BME280;66726;52.388;9.986;2023-01-15T13:12:36;99077.63;;;6.82;59.97
77583;BME280;66726;52.388;9.986;2023-01-15T13:15:05;99080.75;;;6.86;60.16
77583;BME280;66726;52.388;9.986;2023-01-15T13:17:49;99096.44;;;6.81;60.70
77583;BME280;66726;52.388;9.986;2023-01-15T13:20:38;99115.09;;;6.73;60.49
77583;BME280;66726;52.388;9.986;2023-01-15T13:23:30;99117.78;;;6.64;61.15
77583;BME280;66726;52.388;9.986;2023-01-15T13:26:19;99100.06;;;6.57;60.68
77583;BME280;66726;52.388;9.986;2023-01-15T13:29:04;99100.06;;;6.57;60.31
77583;BME280;66726;52.388;9.986;2023-01-15T13:31:58;99088.97;;;6.53;60.98
77583;BME280;66726;52.388;9.986;2023-01-15T13:34:39;99097.56;;;6.55;61.55
77583;BME280;66726;52.388;9.986;2023-01-15T13:37:21;99084.63;;;6.52;61.46
77583;BME280;66726;52.388;9.986;2023-01-15T13:39:57;99103.25;;;6.52;60.62
77583;BME280;66726;52.388;9.986;2023-01-15T13:42:28;99090.59;;;6.54;60.72
77583;BME280;66726;52.388;9.986;2023-01-15T13:45:28;99081.16;;;6.52;61.06
77583;BME280;66726;52.388;9.986;2023-01-15T13:48:06;99085.28;;;6.54;61.14
77583;BME280;66726;52.388;9.986;2023-01-15T13:50:40;99073.00;;;6.53;60.76
77583;BME280;66726;52.388;9.986;2023-01-15T13:53:22;99082.28;;;6.57;60.64